Time;durP1;ratioP1;P1;durP2;ratioP2;P2;SDS_P1;SDS_P2;PMS_P1;PMS_P2;Temp;Humidity;BMP_temperature;BMP_pressure;BME280_temperature;BME280_humidity;BME280_pressure;Samples;Min_cycle;Max_cycle;Signal;HPM_P1;HPM_P2
2022/03/11 00:01:52;;;;;;;12.07;5.22;;;;;;;;;;4974030;28;20153;-67
2022/03/11 00:04:20;;;;;;;9.02;4.85;;;;;;;;;;4975982;28;20051;-65
2022/03/11 00:06:45;;;;;;;9.50;4.00;;;;;;;;;;4991692;28;20026;-66
2022/03/11 00:09:12;;;;;;;9.30;5.03;;;;;;;;;;4973864;28;20061;-66
2022/03/11 00:11:37;;;;;;;9.30;4.35;;;;;;;;;;4963219;28;20160;-65
2022/03/11 00:14:03;;;;;;;11.77;4.97;;;;;;;;;;4975373;28;20653;-65
2022/03/11 00:16:29;;;;;;;7.60;4.72;;;;;;;;;;4964001;28;20881;-66
2022/03/11 00:18:56;;;;;;;15.18;5.20;;;;;;;;;;4976701;28;20061;-67
2022/03/11 00:21:23;;;;;;;8.63;4.30;;;;;;;;;;4974626;28;20157;-64
2022/03/11 00:23:48;;;;;;;8.63;4.93;;;;;;;;;;4976096;28;20034;-66
2022/03/11 00:26:14;;;;;;;10.10;4.68;;;;;;;;;;4975862;28;20030;-64
2022/03/11 00:28:40;;;;;;;7.28;4.13;;;;;;;;;;4973782;28;20030;-65
2022/03/11 00:31:06;;;;;;;9.60;4.30;;;;;;;;;;4975952;28;20215;-66
2022/03/11 00:33:31;;;;;;;14.77;5.05;;;;;;;;;;4954818;28;20065;-65
2022/03/11 00:35:59;;;;;;;10.07;4.38;;;;;;;;;;4958985;28;21939;-66
2022/03/11 00:38:30;;;;;;;14.32;4.85;;;;;;;;;;4976044;28;20031;-66
2022/03/11 00:40:58;;;;;;;7.97;3.78;;;;;;;;;;4976222;28;20050;-64
2022/03/11 00:43:26;;;;;;;7.22;3.90;;;;;;;;;;4975063;28;20045;-66
2022/03/11 00:45:52;;;;;;;8.55;4.13;;;;;;;;;;4959163;28;20049;-64
2022/03/11 00:48:20;;;;;;;10.73;4.32;;;;;;;;;;4977214;28;20497;-65
2022/03/11 00:50:48;;;;;;;7.60;4.40;;;;;;;;;;4958953;28;20034;-66
2022/03/11 00:53:14;;;;;;;10.88;4.65;;;;;;;;;;4975533;28;20053;-64
2022/03/11 00:55:39;;;;;;;8.93;4.05;;;;;;;;;;4976504;28;20133;-65
2022/03/11 00:58:07;;;;;;;9.85;4.30;;;;;;;;;;4974647;28;20625;-66
2022/03/11 01:00:33;;;;;;;9.82;4.60;;;;;;;;;;4973888;28;21623;-63
2022/03/11 01:02:58;;;;;;;11.18;4.32;;;;;;;;;;4953583;28;20043;-64
2022/03/11 01:05:31;;;;;;;7.68;3.67;;;;;;;;;;4976061;28;20045;-68
2022/03/11 01:08:02;;;;;;;8.93;4.78;;;;;;;;;;4975617;28;20976;-64
2022/03/11 01:10:43;;;;;;;10.98;4.95;;;;;;;;;;4976285;28;20409;-65
2022/03/11 01:13:09;;;;;;;7.88;3.25;;;;;;;;;;4975520;28;20038;-64
2022/03/11 01:15:57;;;;;;;8.27;4.75;;;;;;;;;;4976914;28;20480;-65
2022/03/11 01:18:28;;;;;;;9.68;4.93;;;;;;;;;;4961910;28;20052;-65
2022/03/11 01:20:54;;;;;;;11.38;5.82;;;;;;;;;;4973509;28;20954;-67
2022/03/11 01:23:20;;;;;;;11.38;5.97;;;;;;;;;;4975004;28;20099;-69
2022/03/11 01:25:46;;;;;;;11.40;5.10;;;;;;;;;;4974482;28;20057;-65
2022/03/11 01:28:13;;;;;;;11.50;4.63;;;;;;;;;;4974735;28;20064;-64
2022/03/11 01:30:41;;;;;;;14.82;5.47;;;;;;;;;;4974048;28;20076;-65
2022/03/11 01:33:07;;;;;;;10.20;5.30;;;;;;;;;;4974346;28;20062;-65
2022/03/11 01:35:33;;;;;;;12.85;4.55;;;;;;;;;;4974840;28;20044;-64
2022/03/11 01:37:59;;;;;;;13.00;5.07;;;;;;;;;;4974605;28;20144;-65
2022/03/11 01:40:25;;;;;;;11.65;5.60;;;;;;;;;;4974851;28;20030;-64
2022/03/11 01:42:53;;;;;;;14.20;5.35;;;;;;;;;;4989684;28;20089;-69
2022/03/11 01:45:23;;;;;;;9.93;5.18;;;;;;;;;;4958299;28;20430;-65
2022/03/11 01:47:49;;;;;;;12.00;5.82;;;;;;;;;;4975539;28;20045;-66
2022/03/11 01:50:14;;;;;;;12.27;5.90;;;;;;;;;;4959398;28;20508;-66
2022/03/11 01:52:40;;;;;;;14.18;5.55;;;;;;;;;;4973500;28;20072;-64
2022/03/11 01:55:06;;;;;;;11.85;5.55;;;;;;;;;;4974356;28;20794;-65
2022/03/11 01:57:37;;;;;;;10.75;5.70;;;;;;;;;;4989623;28;20476;-67
2022/03/11 02:00:07;;;;;;;11.65;6.03;;;;;;;;;;4973034;28;20494;-69
2022/03/11 02:02:33;;;;;;;21.67;6.50;;;;;;;;;;4973616;28;20038;-66
2022/03/11 02:04:59;;;;;;;10.93;5.03;;;;;;;;;;4985868;28;20029;-65
2022/03/11 02:07:25;;;;;;;11.93;5.97;;;;;;;;;;4973773;28;20026;-64
2022/03/11 02:09:52;;;;;;;14.13;6.00;;;;;;;;;;4974091;28;20034;-66
2022/03/11 02:12:36;;;;;;;9.32;5.95;;;;;;;;;;4973979;28;20029;-64
2022/03/11 02:15:04;;;;;;;14.27;6.43;;;;;;;;;;4975978;28;20101;-65
2022/03/11 02:17:29;;;;;;;18.17;7.45;;;;;;;;;;4987906;28;20106;-65
2022/03/11 02:19:56;;;;;;;19.00;6.88;;;;;;;;;;4973532;28;20084;-66
2022/03/11 02:22:22;;;;;;;18.55;6.93;;;;;;;;;;4989571;28;20132;-65
2022/03/11 02:24:48;;;;;;;18.08;6.97;;;;;;;;;;4972197;28;20421;-67
2022/03/11 02:27:14;;;;;;;17.20;6.88;;;;;;;;;;4973952;28;20038;-65
2022/03/11 02:29:40;;;;;;;17.88;7.53;;;;;;;;;;4969647;28;20038;-65
2022/03/11 02:32:06;;;;;;;16.67;7.53;;;;;;;;;;4975281;28;20092;-66
2022/03/11 02:34:32;;;;;;;17.58;7.93;;;;;;;;;;4959022;28;20042;-64
2022/03/11 02:36:58;;;;;;;21.55;8.43;;;;;;;;;;4972527;28;20060;-64
2022/03/11 02:39:24;;;;;;;21.10;8.57;;;;;;;;;;4972085;28;20034;-64
2022/03/11 02:41:52;;;;;;;22.77;8.68;;;;;;;;;;4973064;28;20057;-65
2022/03/11 02:44:17;;;;;;;20.83;8.57;;;;;;;;;;4957465;28;20091;-65
2022/03/11 02:46:43;;;;;;;16.90;7.50;;;;;;;;;;4976220;28;20581;-65
2022/03/11 02:49:08;;;;;;;19.27;8.45;;;;;;;;;;4973329;28;20049;-67
2022/03/11 02:51:37;;;;;;;17.80;8.00;;;;;;;;;;4974901;28;20039;-64
2022/03/11 02:54:03;;;;;;;17.00;8.18;;;;;;;;;;4973585;28;21886;-64
2022/03/11 02:56:28;;;;;;;21.35;9.60;;;;;;;;;;4975216;28;20033;-67
2022/03/11 02:58:54;;;;;;;21.00;8.82;;;;;;;;;;4960626;28;20026;-64
2022/03/11 03:01:20;;;;;;;21.27;9.05;;;;;;;;;;4976164;28;20022;-65
2022/03/11 03:03:46;;;;;;;21.42;8.35;;;;;;;;;;4962930;28;20038;-65
2022/03/11 03:06:11;;;;;;;24.55;9.68;;;;;;;;;;4978588;28;20482;-66
2022/03/11 03:08:39;;;;;;;18.98;8.93;;;;;;;;;;4976535;28;20042;-66
2022/03/11 03:11:07;;;;;;;24.70;9.98;;;;;;;;;;4976449;28;20115;-67
2022/03/11 03:13:32;;;;;;;21.83;9.40;;;;;;;;;;4960093;28;20543;-66
2022/03/11 03:15:58;;;;;;;18.38;8.15;;;;;;;;;;4976523;28;20034;-66
2022/03/11 03:18:26;;;;;;;24.35;8.77;;;;;;;;;;4994226;28;20034;-65
2022/03/11 03:20:52;;;;;;;26.55;11.25;;;;;;;;;;4974673;28;20147;-67
2022/03/11 03:23:17;;;;;;;22.77;9.82;;;;;;;;;;4979894;28;20816;-68
2022/03/11 03:25:43;;;;;;;18.42;8.10;;;;;;;;;;4960716;28;20037;-66
2022/03/11 03:28:12;;;;;;;25.00;9.60;;;;;;;;;;4991603;28;20045;-67
2022/03/11 03:30:40;;;;;;;31.88;11.57;;;;;;;;;;4964075;28;20065;-66
2022/03/11 03:33:10;;;;;;;24.73;10.50;;;;;;;;;;4993532;28;20772;-66
2022/03/11 03:35:35;;;;;;;18.83;9.63;;;;;;;;;;4993297;28;20042;-64
2022/03/11 03:38:01;;;;;;;26.95;9.10;;;;;;;;;;4974688;28;20100;-66
2022/03/11 03:40:30;;;;;;;22.23;10.10;;;;;;;;;;4990512;28;20034;-63
2022/03/11 03:42:56;;;;;;;21.67;9.00;;;;;;;;;;4975338;28;20038;-66
2022/03/11 03:45:26;;;;;;;24.00;10.50;;;;;;;;;;4977361;28;20062;-69
2022/03/11 03:47:53;;;;;;;23.33;9.40;;;;;;;;;;4976425;28;20085;-65
2022/03/11 03:50:18;;;;;;;24.92;10.60;;;;;;;;;;4976742;28;20084;-68
2022/03/11 03:52:44;;;;;;;20.88;9.32;;;;;;;;;;4975964;28;20042;-65
2022/03/11 03:55:11;;;;;;;27.05;11.43;;;;;;;;;;4976777;28;20053;-66
2022/03/11 03:57:39;;;;;;;32.58;9.57;;;;;;;;;;4960364;28;20041;-67
2022/03/11 04:00:10;;;;;;;25.45;10.80;;;;;;;;;;4978305;28;20450;-66
2022/03/11 04:02:43;;;;;;;20.88;9.43;;;;;;;;;;4992045;28;20037;-66
2022/03/11 04:05:12;;;;;;;23.77;9.82;;;;;;;;;;4975498;28;20054;-67
2022/03/11 04:07:38;;;;;;;26.08;12.02;;;;;;;;;;4976620;28;20030;-70
2022/03/11 04:10:06;;;;;;;21.70;10.93;;;;;;;;;;4960341;28;20064;-67
2022/03/11 04:12:32;;;;;;;27.80;11.70;;;;;;;;;;4946302;28;20066;-67
2022/03/11 04:14:58;;;;;;;20.48;9.73;;;;;;;;;;4975797;28;20033;-67
2022/03/11 04:17:24;;;;;;;24.60;10.30;;;;;;;;;;4959982;28;20104;-66
2022/03/11 04:19:50;;;;;;;24.52;10.55;;;;;;;;;;4974756;28;20057;-66
2022/03/11 04:22:19;;;;;;;22.27;10.75;;;;;;;;;;4975831;28;20054;-67
2022/03/11 04:24:46;;;;;;;28.55;11.65;;;;;;;;;;4960569;28;20031;-66
2022/03/11 04:27:12;;;;;;;26.50;11.63;;;;;;;;;;4975391;28;20084;-65
2022/03/11 04:33:14;;;;;;;19.67;9.32;;;;;;;;;;4975959;28;20073;-64
2022/03/11 04:35:40;;;;;;;24.08;11.75;;;;;;;;;;4976994;28;20038;-66
2022/03/11 04:38:43;;;;;;;20.08;9.93;;;;;;;;;;4989324;28;20038;-67
2022/03/11 04:41:09;;;;;;;29.58;12.60;;;;;;;;;;4976667;28;20382;-65
2022/03/11 04:43:36;;;;;;;25.25;11.43;;;;;;;;;;4976787;28;20033;-66
2022/03/11 04:46:05;;;;;;;33.17;11.80;;;;;;;;;;4974213;28;20049;-68
2022/03/11 04:48:31;;;;;;;21.00;9.68;;;;;;;;;;4977610;28;20124;-69
2022/03/11 04:50:57;;;;;;;25.75;10.80;;;;;;;;;;4972353;28;20052;-66
2022/03/11 04:53:25;;;;;;;27.75;12.30;;;;;;;;;;4978766;28;20036;-68
2022/03/11 04:55:53;;;;;;;22.88;11.73;;;;;;;;;;4973626;28;20061;-68
2022/03/11 04:58:21;;;;;;;19.08;9.88;;;;;;;;;;4974533;28;20141;-67
2022/03/11 05:00:47;;;;;;;26.40;12.15;;;;;;;;;;4957818;28;20420;-64
2022/03/11 05:03:15;;;;;;;22.10;11.18;;;;;;;;;;4977846;28;20287;-65
2022/03/11 05:05:40;;;;;;;27.73;11.93;;;;;;;;;;4974076;28;20755;-66
2022/03/11 05:08:08;;;;;;;25.05;11.13;;;;;;;;;;4990259;28;20488;-68
2022/03/11 05:10:37;;;;;;;28.92;12.23;;;;;;;;;;4960298;28;20030;-64
2022/03/11 05:13:07;;;;;;;26.20;12.88;;;;;;;;;;4974951;28;20075;-67
2022/03/11 05:15:37;;;;;;;21.58;9.57;;;;;;;;;;4975141;28;21968;-65
2022/03/11 05:18:04;;;;;;;27.40;11.00;;;;;;;;;;4963152;28;20065;-63
2022/03/11 05:20:32;;;;;;;25.67;9.90;;;;;;;;;;4974614;28;20840;-65
2022/03/11 05:22:58;;;;;;;22.13;10.35;;;;;;;;;;4974480;28;20034;-66
2022/03/11 05:25:23;;;;;;;30.73;12.93;;;;;;;;;;4956704;28;20455;-64
2022/03/11 05:27:52;;;;;;;30.23;11.13;;;;;;;;;;4973138;28;21571;-66
2022/03/11 05:30:20;;;;;;;25.17;9.85;;;;;;;;;;4974097;28;20022;-66
2022/03/11 05:32:51;;;;;;;21.33;9.48;;;;;;;;;;4974887;28;20658;-66
2022/03/11 05:35:18;;;;;;;26.33;11.18;;;;;;;;;;4975460;28;20022;-66
2022/03/11 05:37:44;;;;;;;19.52;9.80;;;;;;;;;;4973961;28;20478;-67
2022/03/11 05:40:10;;;;;;;25.58;12.13;;;;;;;;;;4974801;28;20156;-65
2022/03/11 05:42:36;;;;;;;31.38;11.68;;;;;;;;;;4974739;28;20247;-67
2022/03/11 05:45:04;;;;;;;29.10;11.63;;;;;;;;;;4973532;28;20650;-68
2022/03/11 05:47:30;;;;;;;24.23;11.73;;;;;;;;;;4972369;28;20477;-66
2022/03/11 05:49:56;;;;;;;24.38;10.40;;;;;;;;;;4973004;28;20041;-67
2022/03/11 05:52:22;;;;;;;37.78;13.02;;;;;;;;;;4975252;28;20088;-66
2022/03/11 05:54:48;;;;;;;20.23;10.48;;;;;;;;;;4977774;28;20476;-69
2022/03/11 05:57:15;;;;;;;22.10;10.85;;;;;;;;;;4972738;28;20026;-65
2022/03/11 05:59:40;;;;;;;28.05;11.55;;;;;;;;;;4974819;28;20034;-67
2022/03/11 06:02:08;;;;;;;24.60;10.38;;;;;;;;;;4959718;28;20101;-65
2022/03/11 06:04:37;;;;;;;25.13;10.18;;;;;;;;;;4977205;28;20042;-66
2022/03/11 06:07:05;;;;;;;26.08;11.15;;;;;;;;;;4973826;28;20038;-68
2022/03/11 06:09:30;;;;;;;24.15;11.05;;;;;;;;;;4957609;28;21076;-68
2022/03/11 06:11:56;;;;;;;22.92;10.40;;;;;;;;;;4970363;28;20034;-65
2022/03/11 06:14:22;;;;;;;25.42;10.50;;;;;;;;;;4974552;28;20026;-66
2022/03/11 06:16:47;;;;;;;20.30;8.68;;;;;;;;;;4973346;28;20030;-67
2022/03/11 06:19:14;;;;;;;24.35;10.85;;;;;;;;;;4970884;28;20030;-67
2022/03/11 06:21:44;;;;;;;24.15;10.80;;;;;;;;;;4970996;28;20628;-67
2022/03/11 06:24:13;;;;;;;23.85;11.20;;;;;;;;;;4986992;28;20534;-65
2022/03/11 06:26:39;;;;;;;27.65;11.05;;;;;;;;;;4974356;28;20966;-67
2022/03/11 06:29:05;;;;;;;25.17;10.40;;;;;;;;;;4973599;28;20030;-66
2022/03/11 06:31:30;;;;;;;27.63;10.60;;;;;;;;;;4976610;28;20609;-66
2022/03/11 06:33:58;;;;;;;25.67;10.82;;;;;;;;;;4974496;28;20133;-66
2022/03/11 06:36:28;;;;;;;26.80;10.77;;;;;;;;;;4975503;28;20489;-68
2022/03/11 06:38:54;;;;;;;28.52;11.48;;;;;;;;;;4975106;28;20547;-66
2022/03/11 06:41:20;;;;;;;28.98;12.68;;;;;;;;;;4961574;28;20037;-67
2022/03/11 06:43:46;;;;;;;27.10;10.35;;;;;;;;;;4959966;28;20409;-65
2022/03/11 06:46:11;;;;;;;24.50;9.88;;;;;;;;;;4975311;28;20049;-65
2022/03/11 06:48:37;;;;;;;22.95;10.02;;;;;;;;;;4972867;28;20034;-68
2022/03/11 06:51:04;;;;;;;21.65;10.38;;;;;;;;;;4971623;28;21942;-67
2022/03/11 06:53:33;;;;;;;24.08;10.15;;;;;;;;;;4974474;28;20049;-67
2022/03/11 06:56:00;;;;;;;26.85;11.25;;;;;;;;;;4972288;28;20026;-66
2022/03/11 06:58:28;;;;;;;21.15;10.55;;;;;;;;;;4973140;28;20042;-66
2022/03/11 07:00:56;;;;;;;23.50;10.30;;;;;;;;;;4973974;28;20579;-65
2022/03/11 07:03:25;;;;;;;22.13;9.23;;;;;;;;;;4974881;28;20842;-66
2022/03/11 07:05:51;;;;;;;20.75;10.38;;;;;;;;;;4972993;28;20034;-67
2022/03/11 07:08:22;;;;;;;21.60;10.50;;;;;;;;;;4971541;28;20114;-65
2022/03/11 07:10:47;;;;;;;23.35;9.80;;;;;;;;;;4970829;28;20152;-67
2022/03/11 07:13:13;;;;;;;23.20;10.00;;;;;;;;;;4973574;28;20116;-66
2022/03/11 07:15:39;;;;;;;22.63;9.65;;;;;;;;;;4972621;28;20034;-67
2022/03/11 07:18:05;;;;;;;20.13;10.40;;;;;;;;;;4973627;28;20677;-69
2022/03/11 07:20:30;;;;;;;24.20;10.85;;;;;;;;;;4973355;28;20054;-66
2022/03/11 07:22:56;;;;;;;18.65;9.10;;;;;;;;;;4973944;28;20034;-66
2022/03/11 07:25:22;;;;;;;18.13;9.52;;;;;;;;;;4971393;28;20108;-68
2022/03/11 07:27:52;;;;;;;25.42;10.40;;;;;;;;;;4957832;28;21194;-67
2022/03/11 07:30:17;;;;;;;21.15;9.82;;;;;;;;;;4972538;28;20184;-67
2022/03/11 07:32:43;;;;;;;21.95;9.20;;;;;;;;;;4957278;28;20512;-67
2022/03/11 07:35:09;;;;;;;19.27;9.63;;;;;;;;;;4958585;28;20037;-67
2022/03/11 07:37:35;;;;;;;20.55;10.50;;;;;;;;;;4972750;28;20034;-71
2022/03/11 07:40:03;;;;;;;16.77;9.05;;;;;;;;;;4973098;28;20513;-66
2022/03/11 07:42:31;;;;;;;17.67;9.65;;;;;;;;;;4974512;28;20228;-65
2022/03/11 07:44:56;;;;;;;20.00;9.70;;;;;;;;;;4976234;28;20053;-67
2022/03/11 07:47:22;;;;;;;24.70;10.02;;;;;;;;;;4975186;28;20030;-65
2022/03/11 07:49:49;;;;;;;18.63;8.95;;;;;;;;;;4975376;28;20594;-67
2022/03/11 07:52:15;;;;;;;21.15;10.10;;;;;;;;;;4974372;28;20037;-69
2022/03/11 07:54:42;;;;;;;25.25;10.48;;;;;;;;;;4977228;28;20153;-69
2022/03/11 07:57:07;;;;;;;18.63;9.70;;;;;;;;;;4972416;28;20025;-67
2022/03/11 07:59:37;;;;;;;21.83;9.57;;;;;;;;;;4976718;28;20568;-67
2022/03/11 08:02:03;;;;;;;21.02;9.57;;;;;;;;;;4978489;28;20104;-67
2022/03/11 08:04:29;;;;;;;22.85;10.55;;;;;;;;;;4991989;28;20426;-66
2022/03/11 08:06:55;;;;;;;17.10;9.27;;;;;;;;;;4977482;28;20041;-67
2022/03/11 08:09:23;;;;;;;20.00;9.85;;;;;;;;;;4973016;28;20045;-73
2022/03/11 08:11:53;;;;;;;19.30;9.55;;;;;;;;;;4971468;28;20710;-68
2022/03/11 08:14:19;;;;;;;21.60;10.15;;;;;;;;;;4973835;28;20470;-70
2022/03/11 08:16:45;;;;;;;22.15;10.15;;;;;;;;;;4977105;28;20033;-72
2022/03/11 08:19:10;;;;;;;19.88;9.55;;;;;;;;;;4977606;28;20046;-68
2022/03/11 08:21:36;;;;;;;16.00;8.98;;;;;;;;;;4977647;28;20054;-69
2022/03/11 08:24:05;;;;;;;20.75;9.50;;;;;;;;;;4977689;28;20082;-66
2022/03/11 08:26:30;;;;;;;21.52;10.07;;;;;;;;;;4974130;28;20034;-71
2022/03/11 08:28:59;;;;;;;25.00;10.25;;;;;;;;;;4991803;28;20048;-68
2022/03/11 08:31:24;;;;;;;17.08;9.50;;;;;;;;;;4974837;28;20579;-71
2022/03/11 08:33:52;;;;;;;19.63;10.10;;;;;;;;;;4988949;28;20034;-67
2022/03/11 08:36:20;;;;;;;16.42;8.73;;;;;;;;;;4973843;28;20065;-78
2022/03/11 08:38:46;;;;;;;19.35;10.00;;;;;;;;;;4972596;28;20064;-68
2022/03/11 08:41:12;;;;;;;19.38;9.82;;;;;;;;;;4961023;28;21098;-72
2022/03/11 08:43:38;;;;;;;17.58;9.80;;;;;;;;;;4959631;28;20054;-69
2022/03/11 08:46:05;;;;;;;20.75;9.35;;;;;;;;;;4974791;28;20041;-68
2022/03/11 08:48:31;;;;;;;21.67;9.30;;;;;;;;;;4974707;28;20539;-69
2022/03/11 08:50:59;;;;;;;19.73;10.50;;;;;;;;;;4950899;28;20783;-68
2022/03/11 08:53:29;;;;;;;21.20;9.45;;;;;;;;;;4975845;28;20031;-69
2022/03/11 08:55:57;;;;;;;19.35;9.93;;;;;;;;;;4971793;28;20042;-69
2022/03/11 08:58:23;;;;;;;20.08;9.68;;;;;;;;;;4973809;28;20041;-68
2022/03/11 09:00:48;;;;;;;20.35;9.60;;;;;;;;;;4976477;28;20148;-67
2022/03/11 09:03:15;;;;;;;18.10;9.57;;;;;;;;;;4975993;28;20058;-70
2022/03/11 09:05:43;;;;;;;17.80;9.27;;;;;;;;;;4974374;28;20153;-68
2022/03/11 09:08:09;;;;;;;18.92;10.85;;;;;;;;;;4972404;28;20034;-67
2022/03/11 09:10:38;;;;;;;20.15;9.50;;;;;;;;;;4988134;28;20605;-66
2022/03/11 09:16:39;;;;;;;22.77;10.35;;;;;;;;;;4975353;28;20045;-67
2022/03/11 09:19:05;;;;;;;21.20;9.95;;;;;;;;;;4975683;28;20034;-66
2022/03/11 09:21:33;;;;;;;19.52;9.82;;;;;;;;;;4983854;28;20057;-64
2022/03/11 09:23:59;;;;;;;20.58;10.55;;;;;;;;;;4972776;28;20057;-68
2022/03/11 09:26:25;;;;;;;19.90;9.68;;;;;;;;;;4970707;28;20938;-69
2022/03/11 09:28:51;;;;;;;23.75;8.80;;;;;;;;;;4989220;28;20042;-72
2022/03/11 09:31:18;;;;;;;14.27;8.43;;;;;;;;;;4974046;28;20145;-69
2022/03/11 09:33:46;;;;;;;23.90;9.05;;;;;;;;;;4972049;28;20034;-66
2022/03/11 09:36:12;;;;;;;21.38;9.90;;;;;;;;;;4971058;28;20026;-67
2022/03/11 09:38:39;;;;;;;15.88;9.50;;;;;;;;;;4984438;28;20630;-68
2022/03/11 09:41:05;;;;;;;18.08;8.80;;;;;;;;;;4968088;28;20022;-67
2022/03/11 09:43:32;;;;;;;22.08;9.48;;;;;;;;;;4967915;28;20041;-68
2022/03/11 09:46:00;;;;;;;20.30;9.30;;;;;;;;;;4985690;28;20377;-66
2022/03/11 09:48:25;;;;;;;17.08;9.05;;;;;;;;;;4956602;28;20045;-67
2022/03/11 09:50:54;;;;;;;22.20;9.50;;;;;;;;;;4981717;28;20120;-67
2022/03/11 09:53:20;;;;;;;22.13;9.60;;;;;;;;;;4942949;28;20042;-72
2022/03/11 09:55:46;;;;;;;16.05;9.40;;;;;;;;;;4968116;28;20072;-71
2022/03/11 09:58:12;;;;;;;18.25;8.98;;;;;;;;;;4950393;28;20122;-69
2022/03/11 10:00:38;;;;;;;18.50;8.52;;;;;;;;;;4966988;28;20121;-65
2022/03/11 10:03:08;;;;;;;18.70;9.05;;;;;;;;;;4973973;28;20431;-67
2022/03/11 10:06:06;;;;;;;16.17;8.13;;;;;;;;;;4968012;28;20038;-69
2022/03/11 10:08:34;;;;;;;15.70;8.27;;;;;;;;;;4949777;28;20694;-67
2022/03/11 10:11:16;;;;;;;15.32;8.95;;;;;;;;;;4970808;28;20060;-66
2022/03/11 10:13:48;;;;;;;15.75;8.77;;;;;;;;;;4953465;28;20068;-66
2022/03/11 10:16:19;;;;;;;17.73;8.88;;;;;;;;;;4971084;28;20077;-71
2022/03/11 10:19:04;;;;;;;20.85;9.13;;;;;;;;;;4967784;28;20042;-61
2022/03/11 10:21:30;;;;;;;;;;;;;;;;;;4970952;28;20054;-72
2022/03/11 10:23:59;;;;;;;15.73;8.18;;;;;;;;;;4970105;28;19918;-72
2022/03/11 10:26:41;;;;;;;18.52;9.85;;;;;;;;;;4975903;28;20081;-66
2022/03/11 10:29:11;;;;;;;18.58;9.38;;;;;;;;;;4989746;28;20049;-71
2022/03/11 10:31:39;;;;;;;17.98;10.15;;;;;;;;;;4969989;28;20132;-63
2022/03/11 10:34:22;;;;;;;19.38;9.50;;;;;;;;;;4959279;28;20030;-68
2022/03/11 10:36:51;;;;;;;17.23;9.05;;;;;;;;;;4984333;28;20113;-67
2022/03/11 10:39:18;;;;;;;16.58;9.10;;;;;;;;;;4969992;28;20377;-67
2022/03/11 10:41:46;;;;;;;19.05;10.30;;;;;;;;;;4966072;28;20038;-69
2022/03/11 10:44:16;;;;;;;16.70;10.00;;;;;;;;;;4970654;28;20124;-67
2022/03/11 10:46:42;;;;;;;16.27;8.50;;;;;;;;;;4975687;28;20109;-68
2022/03/11 10:49:08;;;;;;;16.60;9.38;;;;;;;;;;4972147;28;20030;-70
2022/03/11 10:51:35;;;;;;;16.30;9.07;;;;;;;;;;4955309;28;20188;-68
2022/03/11 10:54:06;;;;;;;16.08;8.93;;;;;;;;;;4974216;28;20053;-69
2022/03/11 10:56:39;;;;;;;19.27;9.50;;;;;;;;;;4972839;28;20041;-69
2022/03/11 10:59:06;;;;;;;15.52;8.90;;;;;;;;;;4975511;28;20554;-65
2022/03/11 11:01:44;;;;;;;14.02;8.88;;;;;;;;;;4970809;28;20056;-68
2022/03/11 11:04:13;;;;;;;17.25;8.90;;;;;;;;;;4973244;28;20110;-70
2022/03/11 11:06:39;;;;;;;15.73;8.77;;;;;;;;;;4973476;28;20180;-67
2022/03/11 11:09:06;;;;;;;15.90;9.05;;;;;;;;;;4987176;28;20030;-63
2022/03/11 11:11:32;;;;;;;14.57;8.45;;;;;;;;;;4971815;28;20030;-68
2022/03/11 11:14:05;;;;;;;21.15;9.55;;;;;;;;;;4971355;28;20132;-68
2022/03/11 11:16:32;;;;;;;18.08;8.82;;;;;;;;;;4985933;28;21009;-69
2022/03/11 11:18:59;;;;;;;15.77;9.40;;;;;;;;;;4975743;28;20505;-69
2022/03/11 11:21:26;;;;;;;14.82;8.48;;;;;;;;;;4972826;28;20522;-69
2022/03/11 11:23:55;;;;;;;16.35;9.10;;;;;;;;;;4975799;28;20030;-66
2022/03/11 11:26:23;;;;;;;14.45;8.48;;;;;;;;;;4975646;28;20076;-72
2022/03/11 11:28:53;;;;;;;17.58;9.90;;;;;;;;;;4959048;28;20030;-64
2022/03/11 11:31:22;;;;;;;21.90;8.60;;;;;;;;;;4978467;28;20038;-63
2022/03/11 11:33:48;;;;;;;14.93;8.25;;;;;;;;;;4974905;28;20026;-68
2022/03/11 11:36:37;;;;;;;17.73;9.98;;;;;;;;;;4976531;28;20105;-69
2022/03/11 11:39:03;;;;;;;15.50;8.85;;;;;;;;;;4972620;28;20093;-70
2022/03/11 11:41:30;;;;;;;11.68;8.07;;;;;;;;;;4975874;28;20030;-69
2022/03/11 11:43:58;;;;;;;18.05;8.50;;;;;;;;;;4973889;28;20042;-69
2022/03/11 11:46:25;;;;;;;14.15;8.25;;;;;;;;;;4975691;28;20037;-68
2022/03/11 11:48:51;;;;;;;19.23;8.40;;;;;;;;;;4978006;28;20042;-67
2022/03/11 11:51:20;;;;;;;13.90;8.63;;;;;;;;;;4976721;28;20026;-68
2022/03/11 11:53:46;;;;;;;16.77;8.43;;;;;;;;;;4974608;28;20492;-68
2022/03/11 11:56:30;;;;;;;15.82;8.80;;;;;;;;;;4973666;28;20034;-70
2022/03/11 11:58:56;;;;;;;12.77;7.95;;;;;;;;;;4962390;28;20035;-65
2022/03/11 12:01:43;;;;;;;14.05;8.48;;;;;;;;;;4986721;28;20470;-62
2022/03/11 12:04:27;;;;;;;13.65;8.07;;;;;;;;;;4977481;28;20041;-67
2022/03/11 12:06:55;;;;;;;12.53;7.83;;;;;;;;;;4975499;28;20062;-68
2022/03/11 12:09:40;;;;;;;13.77;8.27;;;;;;;;;;4976916;28;20141;-68
2022/03/11 12:12:09;;;;;;;13.35;8.18;;;;;;;;;;4973171;28;20038;-67
2022/03/11 12:14:54;;;;;;;11.73;8.10;;;;;;;;;;4971141;28;20030;-68
2022/03/11 12:17:38;;;;;;;13.38;8.38;;;;;;;;;;4975665;28;20122;-67
2022/03/11 12:20:23;;;;;;;18.05;8.45;;;;;;;;;;4971133;28;20062;-64
2022/03/11 12:23:08;;;;;;;11.40;7.20;;;;;;;;;;4976540;28;20045;-67
2022/03/11 12:25:35;;;;;;;15.95;7.82;;;;;;;;;;4975177;28;20038;-68
2022/03/11 12:28:06;;;;;;;10.40;7.45;;;;;;;;;;4989892;28;20061;-69
2022/03/11 12:30:38;;;;;;;13.27;7.53;;;;;;;;;;4973503;28;20050;-65
2022/03/11 12:33:05;;;;;;;13.75;8.23;;;;;;;;;;4991902;28;20034;-67
2022/03/11 12:35:31;;;;;;;14.23;7.72;;;;;;;;;;4973220;28;20473;-72
2022/03/11 12:37:57;;;;;;;12.95;7.45;;;;;;;;;;4977308;28;20022;-69
2022/03/11 12:40:23;;;;;;;15.13;8.25;;;;;;;;;;4955129;28;20034;-70
2022/03/11 12:42:51;;;;;;;15.77;7.88;;;;;;;;;;4976339;28;20054;-70
2022/03/11 12:45:30;;;;;;;10.70;7.32;;;;;;;;;;4973024;28;20063;-67
2022/03/11 12:47:59;;;;;;;17.45;7.45;;;;;;;;;;4991836;28;20037;-66
2022/03/11 12:50:26;;;;;;;13.13;7.97;;;;;;;;;;4978136;28;20025;-71
2022/03/11 12:52:54;;;;;;;14.38;7.78;;;;;;;;;;4978616;28;20121;-68
2022/03/11 12:55:30;;;;;;;12.13;7.53;;;;;;;;;;4976378;28;20030;-65
2022/03/11 12:58:02;;;;;;;15.25;7.85;;;;;;;;;;4985199;28;20168;-67
2022/03/11 13:00:31;;;;;;;17.25;8.10;;;;;;;;;;4985413;28;21970;-69
2022/03/11 13:02:58;;;;;;;13.18;7.78;;;;;;;;;;4989782;28;20100;-71
2022/03/11 13:05:28;;;;;;;14.05;7.68;;;;;;;;;;4972760;28;20124;-68
2022/03/11 13:07:58;;;;;;;12.77;7.85;;;;;;;;;;4976368;28;20030;-70
2022/03/11 13:10:26;;;;;;;12.02;6.28;;;;;;;;;;4974088;28;20091;-67
2022/03/11 13:12:52;;;;;;;14.05;7.55;;;;;;;;;;4973896;28;20504;-67
2022/03/11 13:15:22;;;;;;;11.20;6.97;;;;;;;;;;4957089;28;20042;-69
2022/03/11 13:17:53;;;;;;;13.38;7.07;;;;;;;;;;4977324;28;20072;-68
2022/03/11 13:20:25;;;;;;;13.05;7.80;;;;;;;;;;4974926;28;20077;-68
2022/03/11 13:22:51;;;;;;;11.48;7.82;;;;;;;;;;4991310;28;20053;-64
2022/03/11 13:25:22;;;;;;;8.77;7.00;;;;;;;;;;4974835;28;20739;-72
2022/03/11 13:27:48;;;;;;;12.88;6.90;;;;;;;;;;4973439;28;20030;-70
2022/03/11 13:30:14;;;;;;;19.05;7.80;;;;;;;;;;4988083;28;20117;-68
2022/03/11 13:32:39;;;;;;;14.82;7.30;;;;;;;;;;4973981;28;20590;-69
2022/03/11 13:35:09;;;;;;;13.40;7.63;;;;;;;;;;4976930;28;20066;-67
2022/03/11 13:37:44;;;;;;;10.93;7.00;;;;;;;;;;4974419;28;20042;-67
2022/03/11 13:40:10;;;;;;;10.55;6.85;;;;;;;;;;4976905;28;20931;-70
2022/03/11 13:42:38;;;;;;;14.05;6.47;;;;;;;;;;4975015;28;20154;-67
2022/03/11 13:45:06;;;;;;;9.63;6.45;;;;;;;;;;4977404;28;20189;-68
2022/03/11 13:47:32;;;;;;;13.20;6.35;;;;;;;;;;4958913;28;20029;-70
2022/03/11 13:50:07;;;;;;;11.30;5.72;;;;;;;;;;4988571;28;20030;-69
2022/03/11 13:52:40;;;;;;;13.98;6.90;;;;;;;;;;4954007;28;20046;-71
2022/03/11 13:55:13;;;;;;;21.43;6.87;;;;;;;;;;4974836;28;20584;-70
2022/03/11 13:57:38;;;;;;;13.93;7.07;;;;;;;;;;4986056;28;20033;-68
2022/03/11 14:00:20;;;;;;;15.70;7.82;;;;;;;;;;4971685;28;20103;-67
2022/03/11 14:02:49;;;;;;;11.82;6.97;;;;;;;;;;4972616;28;20031;-68
2022/03/11 14:05:21;;;;;;;10.55;5.93;;;;;;;;;;4973066;28;20018;-72
2022/03/11 14:07:54;;;;;;;11.68;6.50;;;;;;;;;;4962589;28;20054;-67
2022/03/11 14:10:21;;;;;;;17.27;6.53;;;;;;;;;;4975538;28;20089;-66
2022/03/11 14:13:03;;;;;;;12.75;6.32;;;;;;;;;;4955595;28;20113;-69
2022/03/11 14:15:35;;;;;;;16.42;5.75;;;;;;;;;;4972252;28;20060;-67
2022/03/11 14:18:03;;;;;;;15.20;6.60;;;;;;;;;;4982155;28;20176;-66
2022/03/11 14:20:34;;;;;;;16.08;6.63;;;;;;;;;;4985513;28;20050;-69
2022/03/11 14:23:00;;;;;;;10.75;6.57;;;;;;;;;;4974289;28;20544;-72
2022/03/11 14:25:27;;;;;;;13.30;6.43;;;;;;;;;;4973180;28;20777;-72
2022/03/11 14:27:53;;;;;;;9.57;6.00;;;;;;;;;;4972588;28;20033;-69
2022/03/11 14:30:19;;;;;;;12.00;6.63;;;;;;;;;;4988310;28;20034;-65
2022/03/11 14:32:44;;;;;;;12.25;6.35;;;;;;;;;;4989345;28;20161;-68
2022/03/11 14:35:11;;;;;;;8.35;5.28;;;;;;;;;;4987868;28;20030;-66
2022/03/11 14:37:37;;;;;;;12.50;6.53;;;;;;;;;;4974907;28;20034;-69
2022/03/11 14:40:04;;;;;;;9.93;6.22;;;;;;;;;;4972223;28;20056;-71
2022/03/11 14:42:32;;;;;;;11.25;6.38;;;;;;;;;;4954481;28;20030;-68